createdAt,value
2018-12-03T00:00:17.000Z,31
2018-12-03T00:01:17.000Z,31
2018-12-03T00:02:17.000Z,31
2018-12-03T00:03:17.000Z,31
2018-12-03T00:04:17.000Z,31
2018-12-03T00:05:17.000Z,31
2018-12-03T00:07:17.000Z,31
2018-12-03T00:08:17.000Z,31
2018-12-03T00:10:17.000Z,31
2018-12-03T00:11:17.000Z,31
2018-12-03T00:12:17.000Z,31
2018-12-03T00:13:17.000Z,31
2018-12-03T00:14:17.000Z,31
2018-12-03T00:16:17.000Z,31
2018-12-03T00:17:17.000Z,31
2018-12-03T00:18:17.000Z,31
2018-12-03T00:19:17.000Z,31
2018-12-03T00:21:17.000Z,31
2018-12-03T00:22:17.000Z,31
2018-12-03T00:23:17.000Z,31
2018-12-03T00:24:17.000Z,31
2018-12-03T00:26:17.000Z,31
2018-12-03T00:27:17.000Z,31
2018-12-03T00:28:17.000Z,31
2018-12-03T00:29:17.000Z,31
2018-12-03T00:30:17.000Z,31
2018-12-03T00:31:17.000Z,31
2018-12-03T00:32:17.000Z,31
2018-12-03T00:33:17.000Z,31
2018-12-03T00:34:17.000Z,31
2018-12-03T00:35:17.000Z,31
2018-12-03T00:36:17.000Z,31
2018-12-03T00:38:17.000Z,31
2018-12-03T00:39:17.000Z,31
2018-12-03T00:41:17.000Z,31
2018-12-03T00:42:17.000Z,31
2018-12-03T00:43:17.000Z,31
2018-12-03T00:44:17.000Z,31
2018-12-03T00:45:17.000Z,31
2018-12-03T00:46:17.000Z,31
2018-12-03T00:47:17.000Z,31
2018-12-03T00:48:17.000Z,31
2018-12-03T00:49:17.000Z,31
2018-12-03T00:50:17.000Z,31
2018-12-03T00:51:17.000Z,31
2018-12-03T00:52:17.000Z,31
2018-12-03T00:53:17.000Z,31
2018-12-03T00:54:17.000Z,31
2018-12-03T00:55:17.000Z,31
2018-12-03T00:56:17.000Z,31
2018-12-03T00:57:17.000Z,31
2018-12-03T00:58:17.000Z,31
2018-12-03T00:59:17.000Z,31
2018-12-03T01:00:17.000Z,31
2018-12-03T01:01:17.000Z,31
2018-12-03T01:02:17.000Z,31
2018-12-03T01:04:17.000Z,31
2018-12-03T01:05:17.000Z,31
2018-12-03T01:06:17.000Z,31
2018-12-03T01:07:17.000Z,31
2018-12-03T01:08:17.000Z,31
2018-12-03T01:09:17.000Z,31
2018-12-03T01:10:17.000Z,31
2018-12-03T01:11:17.000Z,31
2018-12-03T01:13:17.000Z,31
2018-12-03T01:14:17.000Z,31
2018-12-03T01:15:17.000Z,31
2018-12-03T01:16:17.000Z,31
2018-12-03T01:17:17.000Z,31
2018-12-03T01:18:17.000Z,31
2018-12-03T01:19:17.000Z,31
2018-12-03T01:20:17.000Z,31
2018-12-03T01:21:17.000Z,31
2018-12-03T01:22:17.000Z,31
2018-12-03T01:23:17.000Z,31
2018-12-03T01:24:17.000Z,31
2018-12-03T01:25:17.000Z,31
2018-12-03T01:26:17.000Z,31
2018-12-03T01:28:17.000Z,31
2018-12-03T01:29:17.000Z,31
2018-12-03T01:30:17.000Z,31
2018-12-03T01:31:17.000Z,31
2018-12-03T01:33:17.000Z,31
2018-12-03T01:34:17.000Z,31
2018-12-03T01:35:17.000Z,31
2018-12-03T01:36:17.000Z,31
2018-12-03T01:37:17.000Z,31
2018-12-03T01:38:17.000Z,31
2018-12-03T01:39:17.000Z,31
2018-12-03T01:41:17.000Z,31
2018-12-03T01:42:17.000Z,31
2018-12-03T01:43:17.000Z,31
2018-12-03T01:44:17.000Z,31
2018-12-03T01:45:17.000Z,31
2018-12-03T01:46:17.000Z,31
2018-12-03T01:48:17.000Z,31
2018-12-03T01:50:17.000Z,31
2018-12-03T01:51:17.000Z,31
2018-12-03T01:52:17.000Z,31
2018-12-03T01:53:17.000Z,31
2018-12-03T01:54:17.000Z,31
2018-12-03T01:55:17.000Z,31
2018-12-03T01:57:17.000Z,31
2018-12-03T01:58:17.000Z,31
2018-12-03T01:59:17.000Z,31
2018-12-03T02:01:17.000Z,31
2018-12-03T02:02:17.000Z,31
2018-12-03T02:04:17.000Z,31
2018-12-03T02:05:17.000Z,31
2018-12-03T02:06:17.000Z,31
2018-12-03T02:07:17.000Z,31
2018-12-03T02:09:17.000Z,31
2018-12-03T02:10:17.000Z,31
2018-12-03T02:11:17.000Z,31
2018-12-03T02:12:17.000Z,31
2018-12-03T02:14:17.000Z,31
2018-12-03T02:15:17.000Z,31
2018-12-03T02:16:17.000Z,31
2018-12-03T02:17:17.000Z,31
2018-12-03T02:19:17.000Z,31
2018-12-03T02:20:17.000Z,31
2018-12-03T02:21:17.000Z,31
2018-12-03T02:22:17.000Z,31
2018-12-03T02:23:17.000Z,31
2018-12-03T02:24:17.000Z,31
2018-12-03T02:25:17.000Z,31
2018-12-03T02:26:17.000Z,31
2018-12-03T02:27:17.000Z,31
2018-12-03T02:29:17.000Z,31
2018-12-03T02:30:17.000Z,31
2018-12-03T02:31:17.000Z,31
2018-12-03T02:33:17.000Z,31
2018-12-03T02:35:17.000Z,31
2018-12-03T02:36:17.000Z,31
2018-12-03T02:37:17.000Z,31
2018-12-03T02:38:17.000Z,31
2018-12-03T02:39:17.000Z,31
2018-12-03T02:40:17.000Z,31
2018-12-03T02:42:17.000Z,31
2018-12-03T02:43:17.000Z,31
2018-12-03T02:44:17.000Z,31
2018-12-03T02:46:17.000Z,31
2018-12-03T02:47:17.000Z,31
2018-12-03T02:48:17.000Z,31
2018-12-03T02:49:17.000Z,31
2018-12-03T02:50:17.000Z,31
2018-12-03T02:52:17.000Z,31
2018-12-03T02:53:17.000Z,31
2018-12-03T02:54:17.000Z,31
2018-12-03T02:55:17.000Z,31
2018-12-03T02:56:17.000Z,31
2018-12-03T02:57:17.000Z,31
2018-12-03T02:58:17.000Z,31
2018-12-03T02:59:17.000Z,31
2018-12-03T03:00:17.000Z,31
2018-12-03T03:01:17.000Z,31
2018-12-03T03:02:17.000Z,31
2018-12-03T03:03:17.000Z,31
2018-12-03T03:04:17.000Z,31
2018-12-03T03:05:17.000Z,31
2018-12-03T03:07:17.000Z,31
2018-12-03T03:08:17.000Z,31
2018-12-03T03:09:17.000Z,31
2018-12-03T03:10:17.000Z,31
2018-12-03T03:11:17.000Z,31
2018-12-03T03:12:17.000Z,31
2018-12-03T03:13:17.000Z,31
2018-12-03T03:14:17.000Z,31
2018-12-03T03:15:17.000Z,31
2018-12-03T03:16:17.000Z,31
2018-12-03T03:18:17.000Z,31
2018-12-03T03:19:17.000Z,31
2018-12-03T03:20:17.000Z,31
2018-12-03T03:21:17.000Z,31
2018-12-03T03:22:17.000Z,31
2018-12-03T03:23:17.000Z,31
2018-12-03T03:24:17.000Z,31
2018-12-03T03:25:17.000Z,31
2018-12-03T03:26:17.000Z,31
2018-12-03T03:28:17.000Z,31
2018-12-03T03:29:17.000Z,31
2018-12-03T03:31:17.000Z,31
2018-12-03T03:32:17.000Z,31
2018-12-03T03:33:17.000Z,31
2018-12-03T03:34:17.000Z,31
2018-12-03T03:35:17.000Z,31
2018-12-03T03:36:17.000Z,31
2018-12-03T03:37:17.000Z,32
2018-12-03T03:38:17.000Z,31
2018-12-03T03:39:17.000Z,31
2018-12-03T03:40:17.000Z,31
2018-12-03T03:41:17.000Z,31
2018-12-03T03:42:17.000Z,31
2018-12-03T03:44:17.000Z,31
2018-12-03T03:46:17.000Z,31
2018-12-03T03:47:17.000Z,31
2018-12-03T03:48:17.000Z,31
2018-12-03T03:50:17.000Z,31
2018-12-03T03:51:17.000Z,31
2018-12-03T03:52:17.000Z,32
2018-12-03T03:53:17.000Z,32
2018-12-03T03:54:17.000Z,31
2018-12-03T03:55:17.000Z,31
2018-12-03T03:56:17.000Z,31
2018-12-03T03:57:17.000Z,31
2018-12-03T03:58:17.000Z,32
2018-12-03T03:59:17.000Z,31
2018-12-03T04:00:17.000Z,31
2018-12-03T04:01:17.000Z,31
2018-12-03T04:03:17.000Z,31
2018-12-03T04:04:17.000Z,31
2018-12-03T04:06:17.000Z,31
2018-12-03T04:07:17.000Z,31
2018-12-03T04:08:17.000Z,31
2018-12-03T04:09:17.000Z,31
2018-12-03T04:10:17.000Z,31
2018-12-03T04:11:17.000Z,31
2018-12-03T04:12:17.000Z,31
2018-12-03T04:13:17.000Z,31
2018-12-03T04:14:17.000Z,31
2018-12-03T04:15:17.000Z,31
2018-12-03T04:16:17.000Z,32
2018-12-03T04:17:17.000Z,31
2018-12-03T04:18:17.000Z,31
2018-12-03T04:19:17.000Z,31
2018-12-03T04:20:17.000Z,31
2018-12-03T04:21:17.000Z,31
2018-12-03T04:22:17.000Z,31
2018-12-03T04:23:17.000Z,31
2018-12-03T04:24:17.000Z,31
2018-12-03T04:26:17.000Z,31
2018-12-03T04:27:17.000Z,31
2018-12-03T04:28:17.000Z,31
2018-12-03T04:29:17.000Z,32
2018-12-03T04:30:17.000Z,31
2018-12-03T04:31:17.000Z,32
2018-12-03T04:32:17.000Z,31
2018-12-03T04:33:17.000Z,32
2018-12-03T04:34:17.000Z,32
2018-12-03T04:35:17.000Z,32
2018-12-03T04:36:17.000Z,31
2018-12-03T04:37:17.000Z,32
2018-12-03T04:38:17.000Z,32
2018-12-03T04:39:17.000Z,31
2018-12-03T04:40:17.000Z,31
2018-12-03T04:41:17.000Z,31
2018-12-03T04:42:17.000Z,31
2018-12-03T04:43:17.000Z,31
2018-12-03T04:44:17.000Z,31
2018-12-03T04:45:17.000Z,31
2018-12-03T04:47:17.000Z,31
2018-12-03T04:48:17.000Z,31
2018-12-03T04:49:17.000Z,31
2018-12-03T04:50:17.000Z,31
2018-12-03T04:51:17.000Z,31
2018-12-03T04:52:17.000Z,31
2018-12-03T04:53:17.000Z,31
2018-12-03T04:54:17.000Z,31
2018-12-03T04:55:17.000Z,31
2018-12-03T04:56:17.000Z,31
2018-12-03T04:57:17.000Z,31
2018-12-03T04:58:17.000Z,31
2018-12-03T04:59:17.000Z,31
2018-12-03T05:00:17.000Z,31
2018-12-03T05:01:17.000Z,31
2018-12-03T05:02:17.000Z,31
2018-12-03T05:03:17.000Z,31
2018-12-03T05:04:17.000Z,31
2018-12-03T05:06:17.000Z,31
2018-12-03T05:07:17.000Z,31
2018-12-03T05:08:17.000Z,31
2018-12-03T05:09:17.000Z,31
2018-12-03T05:10:17.000Z,31
2018-12-03T05:11:17.000Z,32
2018-12-03T05:12:17.000Z,31
2018-12-03T05:13:17.000Z,32
2018-12-03T05:14:17.000Z,32
2018-12-03T05:15:17.000Z,32
2018-12-03T05:16:17.000Z,31
2018-12-03T05:17:17.000Z,31
2018-12-03T05:18:17.000Z,31
2018-12-03T05:19:17.000Z,31
2018-12-03T05:20:17.000Z,31
2018-12-03T05:21:17.000Z,31
2018-12-03T05:22:17.000Z,31
2018-12-03T05:24:17.000Z,31
2018-12-03T05:25:17.000Z,31
2018-12-03T05:26:17.000Z,31
2018-12-03T05:27:17.000Z,31
2018-12-03T05:28:17.000Z,32
2018-12-03T05:29:17.000Z,32
2018-12-03T05:30:17.000Z,32
2018-12-03T05:31:17.000Z,32
2018-12-03T05:32:17.000Z,32
2018-12-03T05:33:17.000Z,32
2018-12-03T05:34:17.000Z,32
2018-12-03T05:35:17.000Z,32
2018-12-03T05:37:17.000Z,32
2018-12-03T05:39:17.000Z,33
2018-12-03T05:40:17.000Z,33
2018-12-03T05:41:17.000Z,33
2018-12-03T05:42:17.000Z,33
2018-12-03T05:43:17.000Z,33
2018-12-03T05:44:17.000Z,33
2018-12-03T05:45:17.000Z,33
2018-12-03T05:46:17.000Z,33
2018-12-03T05:47:17.000Z,33
2018-12-03T05:48:17.000Z,34
2018-12-03T05:49:17.000Z,34
2018-12-03T05:50:17.000Z,34
2018-12-03T05:51:17.000Z,34
2018-12-03T05:52:17.000Z,34
2018-12-03T05:53:17.000Z,34
2018-12-03T05:55:17.000Z,34
2018-12-03T05:56:17.000Z,34
2018-12-03T05:57:17.000Z,34
2018-12-03T06:01:48.000Z,34
2018-12-03T06:02:48.000Z,34
2018-12-03T06:03:48.000Z,34
2018-12-03T06:04:48.000Z,34
2018-12-03T06:05:48.000Z,34
2018-12-03T06:06:48.000Z,34
2018-12-03T06:08:48.000Z,34
2018-12-03T06:09:48.000Z,34
2018-12-03T06:11:48.000Z,34
2018-12-03T06:12:48.000Z,34
2018-12-03T06:13:48.000Z,34
2018-12-03T06:14:48.000Z,34
2018-12-03T06:15:48.000Z,34
2018-12-03T06:16:48.000Z,34
2018-12-03T06:17:48.000Z,34
2018-12-03T06:18:48.000Z,34
2018-12-03T06:19:48.000Z,34
2018-12-03T06:20:48.000Z,34
2018-12-03T06:22:48.000Z,34
2018-12-03T06:23:48.000Z,34
2018-12-03T06:25:48.000Z,34
2018-12-03T06:26:48.000Z,34
2018-12-03T06:28:48.000Z,34
2018-12-03T06:29:48.000Z,34
2018-12-03T06:31:48.000Z,34
2018-12-03T06:32:48.000Z,34
2018-12-03T06:33:48.000Z,34
2018-12-03T06:34:48.000Z,34
2018-12-03T06:35:48.000Z,34
2018-12-03T06:36:48.000Z,34
2018-12-03T06:37:48.000Z,34
2018-12-03T06:38:48.000Z,34
2018-12-03T06:39:48.000Z,34
2018-12-03T06:41:48.000Z,34
2018-12-03T06:42:48.000Z,34
2018-12-03T06:43:48.000Z,34
2018-12-03T06:44:48.000Z,34
2018-12-03T06:45:48.000Z,34
2018-12-03T06:46:48.000Z,34
2018-12-03T06:47:48.000Z,34
2018-12-03T06:48:48.000Z,34
2018-12-03T06:50:48.000Z,34
2018-12-03T06:51:48.000Z,34
2018-12-03T06:52:48.000Z,34
2018-12-03T06:53:48.000Z,34
2018-12-03T06:54:48.000Z,34
2018-12-03T06:56:48.000Z,34
2018-12-03T06:57:48.000Z,34
2018-12-03T06:58:48.000Z,34
2018-12-03T07:00:48.000Z,34
2018-12-03T07:01:48.000Z,34
2018-12-03T07:02:48.000Z,34
2018-12-03T07:03:48.000Z,34
2018-12-03T07:04:48.000Z,34
2018-12-03T07:05:48.000Z,34
2018-12-03T07:06:48.000Z,34
2018-12-03T07:07:48.000Z,34
2018-12-03T07:08:48.000Z,34
2018-12-03T07:09:48.000Z,34
2018-12-03T07:10:48.000Z,34
2018-12-03T07:11:48.000Z,34
2018-12-03T07:12:48.000Z,34
2018-12-03T07:13:48.000Z,34
2018-12-03T07:14:48.000Z,34
2018-12-03T07:16:48.000Z,35
2018-12-03T07:17:48.000Z,35
2018-12-03T07:18:48.000Z,35
2018-12-03T07:19:48.000Z,35
2018-12-03T07:20:48.000Z,35
2018-12-03T07:21:48.000Z,35
2018-12-03T07:22:48.000Z,36
2018-12-03T07:23:48.000Z,36
2018-12-03T07:25:48.000Z,36
2018-12-03T07:26:48.000Z,36
2018-12-03T07:27:48.000Z,36
2018-12-03T07:28:48.000Z,36
2018-12-03T07:29:48.000Z,36
2018-12-03T07:31:48.000Z,36
2018-12-03T07:32:48.000Z,37
2018-12-03T07:33:48.000Z,37
2018-12-03T07:35:48.000Z,37
2018-12-03T07:36:48.000Z,37
2018-12-03T07:38:48.000Z,37
2018-12-03T07:39:48.000Z,37
2018-12-03T07:40:48.000Z,37
2018-12-03T07:41:48.000Z,38
2018-12-03T07:42:48.000Z,38
2018-12-03T07:43:48.000Z,37
2018-12-03T07:44:48.000Z,37
2018-12-03T07:45:48.000Z,37
2018-12-03T07:46:48.000Z,37
2018-12-03T07:47:48.000Z,37
2018-12-03T07:48:48.000Z,37
2018-12-03T07:49:48.000Z,37
2018-12-03T07:50:48.000Z,37
2018-12-03T07:51:48.000Z,37
2018-12-03T07:52:48.000Z,37
2018-12-03T07:54:48.000Z,37
2018-12-03T07:56:48.000Z,36
2018-12-03T07:57:48.000Z,37
2018-12-03T07:58:48.000Z,37
2018-12-03T08:00:48.000Z,36
2018-12-03T08:01:48.000Z,36
2018-12-03T08:02:48.000Z,36
2018-12-03T08:03:48.000Z,36
2018-12-03T08:04:48.000Z,36
2018-12-03T08:05:48.000Z,36
2018-12-03T08:06:48.000Z,36
2018-12-03T08:07:48.000Z,36
2018-12-03T08:08:48.000Z,36
2018-12-03T08:09:48.000Z,36
2018-12-03T08:10:48.000Z,36
2018-12-03T08:11:48.000Z,36
2018-12-03T08:12:48.000Z,36
2018-12-03T08:13:48.000Z,36
2018-12-03T08:14:48.000Z,36
2018-12-03T08:15:48.000Z,36
2018-12-03T08:16:48.000Z,36
2018-12-03T08:17:48.000Z,36
2018-12-03T08:18:48.000Z,36
2018-12-03T08:19:48.000Z,36
2018-12-03T08:20:48.000Z,36
2018-12-03T08:21:48.000Z,35
2018-12-03T08:22:48.000Z,35
2018-12-03T08:23:48.000Z,35
2018-12-03T08:24:48.000Z,35
2018-12-03T08:25:48.000Z,35
2018-12-03T08:26:48.000Z,35
2018-12-03T08:27:48.000Z,35
2018-12-03T08:28:48.000Z,35
2018-12-03T08:29:48.000Z,35
2018-12-03T08:30:48.000Z,35
2018-12-03T08:31:48.000Z,35
2018-12-03T08:32:48.000Z,35
2018-12-03T08:33:48.000Z,35
2018-12-03T08:34:48.000Z,35
2018-12-03T08:35:48.000Z,35
2018-12-03T08:36:48.000Z,35
2018-12-03T08:37:48.000Z,35
2018-12-03T08:38:48.000Z,35
2018-12-03T08:39:48.000Z,35
2018-12-03T08:40:48.000Z,35
2018-12-03T08:42:48.000Z,34
2018-12-03T08:43:48.000Z,35
2018-12-03T08:44:48.000Z,35
2018-12-03T08:45:48.000Z,34
2018-12-03T08:46:48.000Z,34
2018-12-03T08:47:48.000Z,34
2018-12-03T08:48:48.000Z,34
2018-12-03T08:49:48.000Z,34
2018-12-03T08:51:48.000Z,34
2018-12-03T08:52:48.000Z,34
2018-12-03T08:53:48.000Z,34
2018-12-03T08:54:48.000Z,34
2018-12-03T08:55:48.000Z,34
2018-12-03T08:56:48.000Z,34
2018-12-03T08:57:48.000Z,34
2018-12-03T08:58:48.000Z,34
2018-12-03T09:00:48.000Z,34
2018-12-03T09:01:48.000Z,34
2018-12-03T09:02:48.000Z,34
2018-12-03T09:03:48.000Z,34
2018-12-03T09:04:48.000Z,34
2018-12-03T09:05:48.000Z,34
2018-12-03T09:07:48.000Z,33
2018-12-03T09:09:48.000Z,33
2018-12-03T09:10:48.000Z,33
2018-12-03T09:11:48.000Z,34
2018-12-03T09:13:48.000Z,33
2018-12-03T09:14:48.000Z,34
2018-12-03T09:15:48.000Z,34
2018-12-03T09:16:48.000Z,33
2018-12-03T09:17:48.000Z,34
2018-12-03T09:18:48.000Z,34
2018-12-03T09:19:48.000Z,33
2018-12-03T09:20:48.000Z,34
2018-12-03T09:21:48.000Z,33
2018-12-03T09:22:48.000Z,33
2018-12-03T09:23:48.000Z,33
2018-12-03T09:24:48.000Z,33
2018-12-03T09:25:48.000Z,33
2018-12-03T09:26:48.000Z,33
2018-12-03T09:27:48.000Z,33
2018-12-03T09:28:48.000Z,33
2018-12-03T09:29:48.000Z,33
2018-12-03T09:30:48.000Z,33
2018-12-03T09:31:48.000Z,33
2018-12-03T09:32:48.000Z,33
2018-12-03T09:33:48.000Z,33
2018-12-03T09:34:48.000Z,33
2018-12-03T09:36:48.000Z,33
2018-12-03T09:37:48.000Z,33
2018-12-03T09:38:48.000Z,33
2018-12-03T09:39:48.000Z,33
2018-12-03T09:40:48.000Z,33
2018-12-03T09:41:48.000Z,33
2018-12-03T09:42:48.000Z,33
2018-12-03T09:43:48.000Z,33
2018-12-03T09:44:48.000Z,33
2018-12-03T09:45:48.000Z,33
2018-12-03T09:46:48.000Z,33
2018-12-03T09:47:48.000Z,33
2018-12-03T09:48:48.000Z,33
2018-12-03T09:49:48.000Z,33
2018-12-03T09:50:48.000Z,33
2018-12-03T09:51:48.000Z,33
2018-12-03T09:52:48.000Z,33
2018-12-03T09:53:48.000Z,33
2018-12-03T09:54:48.000Z,33
2018-12-03T09:55:48.000Z,33
2018-12-03T09:56:48.000Z,33
2018-12-03T09:57:48.000Z,33
2018-12-03T09:58:48.000Z,33
2018-12-03T09:59:48.000Z,33
2018-12-03T10:01:48.000Z,33
2018-12-03T10:02:48.000Z,33
2018-12-03T10:03:48.000Z,33
2018-12-03T10:04:48.000Z,34
2018-12-03T10:05:48.000Z,33
2018-12-03T10:06:48.000Z,34
2018-12-03T10:08:48.000Z,33
2018-12-03T10:09:48.000Z,34
2018-12-03T10:10:48.000Z,33
2018-12-03T10:11:48.000Z,33
2018-12-03T10:12:48.000Z,33
2018-12-03T10:14:48.000Z,33
2018-12-03T10:15:48.000Z,33
2018-12-03T10:16:48.000Z,33
2018-12-03T10:17:48.000Z,33
2018-12-03T10:18:48.000Z,33
2018-12-03T10:20:48.000Z,33
2018-12-03T10:21:48.000Z,33
2018-12-03T10:22:48.000Z,33
2018-12-03T10:23:48.000Z,33
2018-12-03T10:24:48.000Z,33
2018-12-03T10:25:48.000Z,33
2018-12-03T10:27:48.000Z,33
2018-12-03T10:28:48.000Z,33
2018-12-03T10:29:48.000Z,33
2018-12-03T10:31:48.000Z,32
2018-12-03T10:32:48.000Z,33
2018-12-03T10:34:48.000Z,32
2018-12-03T10:35:48.000Z,33
2018-12-03T10:36:48.000Z,33
2018-12-03T10:37:48.000Z,33
2018-12-03T10:38:48.000Z,33
2018-12-03T10:39:48.000Z,33
2018-12-03T10:40:48.000Z,33
2018-12-03T10:41:48.000Z,32
2018-12-03T10:42:48.000Z,33
2018-12-03T10:43:48.000Z,32
2018-12-03T10:44:48.000Z,32
2018-12-03T10:45:48.000Z,33
2018-12-03T10:46:48.000Z,32
2018-12-03T10:47:48.000Z,32
2018-12-03T10:48:48.000Z,32
2018-12-03T10:50:48.000Z,32
2018-12-03T10:51:48.000Z,32
2018-12-03T10:52:48.000Z,32
2018-12-03T10:53:48.000Z,32
2018-12-03T10:54:48.000Z,32
2018-12-03T10:55:48.000Z,32
2018-12-03T10:56:48.000Z,32
2018-12-03T10:57:48.000Z,32
2018-12-03T10:59:48.000Z,32
2018-12-03T11:00:48.000Z,32
2018-12-03T11:01:48.000Z,32
2018-12-03T11:02:48.000Z,32
2018-12-03T11:04:48.000Z,32
2018-12-03T11:05:48.000Z,32
2018-12-03T11:06:48.000Z,32
2018-12-03T11:07:48.000Z,32
2018-12-03T11:08:48.000Z,32
2018-12-03T11:09:48.000Z,32
2018-12-03T11:11:48.000Z,32
2018-12-03T11:12:48.000Z,32
2018-12-03T11:13:48.000Z,32
2018-12-03T11:15:48.000Z,32
2018-12-03T11:16:48.000Z,32
2018-12-03T11:17:48.000Z,32
2018-12-03T11:18:48.000Z,32
2018-12-03T11:19:48.000Z,32
2018-12-03T11:20:48.000Z,32
2018-12-03T11:21:48.000Z,32
2018-12-03T11:22:48.000Z,32
2018-12-03T11:24:48.000Z,31
2018-12-03T11:25:48.000Z,31
2018-12-03T11:26:48.000Z,31
2018-12-03T11:27:48.000Z,31
2018-12-03T11:28:48.000Z,31
2018-12-03T11:29:48.000Z,31
2018-12-03T11:30:48.000Z,31
2018-12-03T11:31:48.000Z,31
2018-12-03T11:32:48.000Z,32
2018-12-03T11:33:48.000Z,31
2018-12-03T11:35:48.000Z,31
2018-12-03T11:37:48.000Z,31
2018-12-03T11:39:48.000Z,31
2018-12-03T11:40:48.000Z,31
2018-12-03T11:41:48.000Z,31
2018-12-03T11:42:48.000Z,31
2018-12-03T11:43:48.000Z,31
2018-12-03T11:44:48.000Z,31
2018-12-03T11:45:48.000Z,31
2018-12-03T11:46:48.000Z,31
2018-12-03T11:47:48.000Z,31
2018-12-03T11:48:48.000Z,31
2018-12-03T11:49:48.000Z,31
2018-12-03T11:51:48.000Z,31
2018-12-03T11:52:48.000Z,31
2018-12-03T11:53:48.000Z,31
2018-12-03T11:54:48.000Z,31
2018-12-03T11:55:48.000Z,31
2018-12-03T11:56:48.000Z,31
2018-12-03T11:57:48.000Z,31
2018-12-03T11:58:48.000Z,31
2018-12-03T11:59:48.000Z,31
2018-12-03T12:00:48.000Z,31
2018-12-03T12:01:48.000Z,31
2018-12-03T12:02:48.000Z,31
2018-12-03T12:03:48.000Z,31
2018-12-03T12:04:48.000Z,31
2018-12-03T12:05:48.000Z,31
2018-12-03T12:06:48.000Z,31
2018-12-03T12:07:48.000Z,30
2018-12-03T12:08:48.000Z,30
2018-12-03T12:09:48.000Z,30
2018-12-03T12:11:48.000Z,30
2018-12-03T12:12:48.000Z,30
2018-12-03T12:13:48.000Z,30
2018-12-03T12:14:48.000Z,30
2018-12-03T12:15:48.000Z,30
2018-12-03T12:16:48.000Z,31
2018-12-03T12:17:48.000Z,31
2018-12-03T12:18:48.000Z,31
2018-12-03T12:19:48.000Z,31
2018-12-03T12:20:48.000Z,31
2018-12-03T12:21:48.000Z,31
2018-12-03T12:22:48.000Z,31
2018-12-03T12:24:48.000Z,31
2018-12-03T12:25:48.000Z,31
2018-12-03T12:26:48.000Z,31
2018-12-03T12:27:48.000Z,31
2018-12-03T12:28:48.000Z,31
2018-12-03T12:29:48.000Z,31
2018-12-03T12:30:48.000Z,31
2018-12-03T12:32:48.000Z,31
2018-12-03T12:33:48.000Z,31
2018-12-03T12:35:48.000Z,31
2018-12-03T12:36:48.000Z,31
2018-12-03T12:37:48.000Z,31
2018-12-03T12:38:48.000Z,31
2018-12-03T12:39:48.000Z,31
2018-12-03T12:40:48.000Z,31
2018-12-03T12:41:48.000Z,31
2018-12-03T12:43:48.000Z,31
2018-12-03T12:44:48.000Z,31
2018-12-03T12:45:48.000Z,31
2018-12-03T12:46:48.000Z,31
2018-12-03T12:47:48.000Z,31
2018-12-03T12:48:48.000Z,31
2018-12-03T12:49:48.000Z,31
2018-12-03T12:50:48.000Z,32
2018-12-03T12:51:48.000Z,31
2018-12-03T12:52:48.000Z,31
2018-12-03T12:53:48.000Z,32
2018-12-03T12:54:48.000Z,32
2018-12-03T12:55:48.000Z,32
2018-12-03T12:56:48.000Z,32
2018-12-03T12:58:48.000Z,32
2018-12-03T12:59:48.000Z,32
2018-12-03T13:01:48.000Z,32
2018-12-03T13:02:48.000Z,32
2018-12-03T13:03:48.000Z,32
2018-12-03T13:04:48.000Z,32
2018-12-03T13:05:48.000Z,32
2018-12-03T13:06:48.000Z,33
2018-12-03T13:07:48.000Z,33
2018-12-03T13:08:48.000Z,33
2018-12-03T13:09:48.000Z,33
2018-12-03T13:10:48.000Z,33
2018-12-03T13:11:48.000Z,33
2018-12-03T13:12:48.000Z,33
2018-12-03T13:13:48.000Z,33
2018-12-03T13:14:48.000Z,33
2018-12-03T13:15:48.000Z,34
2018-12-03T13:16:48.000Z,34
2018-12-03T13:17:48.000Z,34
2018-12-03T13:19:48.000Z,34
2018-12-03T13:20:48.000Z,34
2018-12-03T13:21:48.000Z,34
2018-12-03T13:23:48.000Z,34
2018-12-03T13:24:48.000Z,35
2018-12-03T13:25:48.000Z,35
2018-12-03T13:26:48.000Z,35
2018-12-03T13:27:48.000Z,35
2018-12-03T13:28:48.000Z,35
2018-12-03T13:29:48.000Z,35
2018-12-03T13:30:48.000Z,35
2018-12-03T13:31:48.000Z,35
2018-12-03T13:32:48.000Z,36
2018-12-03T13:33:48.000Z,36
2018-12-03T13:34:48.000Z,36
2018-12-03T13:35:48.000Z,36
2018-12-03T13:36:48.000Z,36
2018-12-03T13:37:48.000Z,36
2018-12-03T13:38:48.000Z,36
2018-12-03T13:39:48.000Z,36
2018-12-03T14:23:09.000Z,39
2018-12-03T14:24:09.000Z,40
2018-12-03T14:25:09.000Z,40
2018-12-03T14:26:09.000Z,39
2018-12-03T14:27:09.000Z,39
2018-12-03T14:28:09.000Z,39
2018-12-03T14:29:09.000Z,39
2018-12-03T14:30:09.000Z,38
2018-12-03T14:31:09.000Z,38
2018-12-03T14:32:09.000Z,38
2018-12-03T14:33:09.000Z,38
2018-12-03T14:34:09.000Z,38
2018-12-03T14:36:09.000Z,37
2018-12-03T14:37:09.000Z,37
2018-12-03T14:38:09.000Z,37
2018-12-03T14:39:09.000Z,37
2018-12-03T14:40:09.000Z,37
2018-12-03T14:41:09.000Z,37
2018-12-03T14:42:09.000Z,37
2018-12-03T14:43:09.000Z,37
2018-12-03T14:44:09.000Z,37
2018-12-03T14:46:09.000Z,36
2018-12-03T14:47:09.000Z,36
2018-12-03T14:48:09.000Z,36
2018-12-03T14:49:09.000Z,36
2018-12-03T14:50:09.000Z,36
2018-12-03T14:51:09.000Z,36
2018-12-03T14:52:09.000Z,36
2018-12-03T14:54:09.000Z,36
2018-12-03T14:55:09.000Z,36
2018-12-03T14:56:09.000Z,36
2018-12-03T14:57:09.000Z,36
2018-12-03T14:58:09.000Z,36
2018-12-03T14:59:09.000Z,36
2018-12-03T15:00:09.000Z,36
2018-12-03T15:01:09.000Z,36
2018-12-03T15:02:09.000Z,36
2018-12-03T15:03:09.000Z,36
2018-12-03T15:04:09.000Z,36
2018-12-03T15:05:09.000Z,36
2018-12-03T15:06:09.000Z,36
2018-12-03T15:07:09.000Z,36
2018-12-03T15:08:09.000Z,35
2018-12-03T15:10:09.000Z,35
2018-12-03T15:12:09.000Z,35
2018-12-03T15:13:09.000Z,35
2018-12-03T15:15:09.000Z,35
2018-12-03T15:16:09.000Z,35
2018-12-03T15:17:09.000Z,35
2018-12-03T15:18:09.000Z,35
2018-12-03T15:19:09.000Z,35
2018-12-03T15:20:10.000Z,35
2018-12-03T15:21:10.000Z,35
2018-12-03T15:22:10.000Z,35
2018-12-03T15:23:10.000Z,35
2018-12-03T15:24:10.000Z,35
2018-12-03T15:25:10.000Z,35
2018-12-03T15:26:10.000Z,35
2018-12-03T15:27:10.000Z,35
2018-12-03T15:28:10.000Z,35
2018-12-03T15:29:10.000Z,35
2018-12-03T15:30:10.000Z,35
2018-12-03T15:32:10.000Z,35
2018-12-03T15:33:10.000Z,35
2018-12-03T15:34:10.000Z,35
2018-12-03T15:35:10.000Z,35
2018-12-03T15:36:10.000Z,35
2018-12-03T15:38:10.000Z,35
2018-12-03T15:39:10.000Z,35
2018-12-03T15:40:10.000Z,35
2018-12-03T15:41:10.000Z,35
2018-12-03T15:42:10.000Z,35
2018-12-03T15:43:10.000Z,35
2018-12-03T15:44:10.000Z,35
2018-12-03T15:45:10.000Z,35
2018-12-03T15:46:10.000Z,35
2018-12-03T15:47:10.000Z,35
2018-12-03T15:48:10.000Z,35
2018-12-03T15:49:10.000Z,34
2018-12-03T15:50:10.000Z,35
2018-12-03T15:51:10.000Z,35
2018-12-03T15:53:10.000Z,35
2018-12-03T15:54:10.000Z,35
2018-12-03T15:55:10.000Z,35
2018-12-03T15:56:10.000Z,35
2018-12-03T15:57:10.000Z,35
2018-12-03T15:58:10.000Z,35
2018-12-03T15:59:10.000Z,34
2018-12-03T16:00:10.000Z,35
2018-12-03T16:01:10.000Z,34
2018-12-03T16:02:10.000Z,34
2018-12-03T16:03:10.000Z,35
2018-12-03T16:04:10.000Z,35
2018-12-03T16:06:10.000Z,35
2018-12-03T16:07:10.000Z,35
2018-12-03T16:08:10.000Z,34
2018-12-03T16:09:10.000Z,35
2018-12-03T16:10:10.000Z,34
2018-12-03T16:12:10.000Z,34
2018-12-03T16:13:10.000Z,35
2018-12-03T16:14:10.000Z,34
2018-12-03T16:15:10.000Z,35
2018-12-03T16:16:10.000Z,35
2018-12-03T16:17:10.000Z,34
2018-12-03T16:18:10.000Z,34
2018-12-03T16:19:10.000Z,34
2018-12-03T16:20:10.000Z,34
2018-12-03T16:21:10.000Z,35
2018-12-03T16:22:10.000Z,35
2018-12-03T16:23:10.000Z,34
2018-12-03T16:24:09.000Z,35
2018-12-03T16:25:09.000Z,35
2018-12-03T16:27:09.000Z,34
2018-12-03T16:28:09.000Z,34
2018-12-03T16:30:09.000Z,34
2018-12-03T16:31:09.000Z,34
2018-12-03T16:32:09.000Z,34
2018-12-03T16:33:09.000Z,34
2018-12-03T16:34:09.000Z,34
2018-12-03T16:35:09.000Z,34
2018-12-03T16:36:09.000Z,34
2018-12-03T16:38:09.000Z,34
2018-12-03T16:39:09.000Z,34
2018-12-03T16:40:09.000Z,34
2018-12-03T16:41:09.000Z,34
2018-12-03T16:42:09.000Z,34
2018-12-03T16:43:09.000Z,34
2018-12-03T16:44:09.000Z,34
2018-12-03T16:45:09.000Z,34
2018-12-03T16:47:09.000Z,34
2018-12-03T16:48:09.000Z,34
2018-12-03T16:49:09.000Z,34